sensor_id;sensor_type;location;lat;lon;timestamp;P1;durP1;ratioP1;P2;durP2;ratioP2
52610;SDS011;38727;40.130;18.292;2024-03-02T00:00:27;30.55;;;7.82;;
52610;SDS011;38727;40.130;18.292;2024-03-02T00:02:58;23.00;;;8.25;;
52610;SDS011;38727;40.130;18.292;2024-03-02T00:05:29;25.90;;;8.35;;
52610;SDS011;38727;40.130;18.292;2024-03-02T00:08:01;23.63;;;6.82;;
52610;SDS011;38727;40.130;18.292;2024-03-02T00:10:37;26.63;;;7.07;;
52610;SDS011;38727;40.130;18.292;2024-03-02T00:13:09;21.58;;;7.97;;
52610;SDS011;38727;40.130;18.292;2024-03-02T00:15:41;20.85;;;7.18;;
52610;SDS011;38727;40.130;18.292;2024-03-02T00:18:18;26.23;;;6.68;;
52610;SDS011;38727;40.130;18.292;2024-03-02T00:20:51;20.70;;;6.50;;
52610;SDS011;38727;40.130;18.292;2024-03-02T00:23:24;26.00;;;6.90;;
52610;SDS011;38727;40.130;18.292;2024-03-02T00:25:58;20.48;;;6.03;;
52610;SDS011;38727;40.130;18.292;2024-03-02T00:28:29;23.67;;;7.07;;
52610;SDS011;38727;40.130;18.292;2024-03-02T00:31:03;26.38;;;6.88;;
52610;SDS011;38727;40.130;18.292;2024-03-02T00:33:37;27.60;;;6.30;;
52610;SDS011;38727;40.130;18.292;2024-03-02T00:36:11;22.42;;;6.20;;
52610;SDS011;38727;40.130;18.292;2024-03-02T00:38:44;34.33;;;7.05;;
52610;SDS011;38727;40.130;18.292;2024-03-02T00:41:19;29.23;;;8.63;;
52610;SDS011;38727;40.130;18.292;2024-03-02T00:43:58;20.80;;;5.82;;
52610;SDS011;38727;40.130;18.292;2024-03-02T00:46:33;26.02;;;5.10;;
52610;SDS011;38727;40.130;18.292;2024-03-02T00:49:04;26.63;;;5.93;;
52610;SDS011;38727;40.130;18.292;2024-03-02T00:51:40;28.70;;;6.07;;
52610;SDS011;38727;40.130;18.292;2024-03-02T00:54:13;27.67;;;5.03;;
52610;SDS011;38727;40.130;18.292;2024-03-02T00:56:46;28.92;;;5.43;;
52610;SDS011;38727;40.130;18.292;2024-03-02T00:59:18;28.85;;;5.75;;
52610;SDS011;38727;40.130;18.292;2024-03-02T01:01:49;22.77;;;4.55;;
52610;SDS011;38727;40.130;18.292;2024-03-02T01:04:19;29.45;;;6.88;;
52610;SDS011;38727;40.130;18.292;2024-03-02T01:06:51;31.15;;;7.10;;
52610;SDS011;38727;40.130;18.292;2024-03-02T01:09:22;25.83;;;5.90;;
52610;SDS011;38727;40.130;18.292;2024-03-02T01:11:55;33.75;;;7.15;;
52610;SDS011;38727;40.130;18.292;2024-03-02T01:14:26;28.05;;;5.72;;
52610;SDS011;38727;40.130;18.292;2024-03-02T01:16:56;31.50;;;5.53;;
52610;SDS011;38727;40.130;18.292;2024-03-02T01:19:26;27.90;;;5.95;;
52610;SDS011;38727;40.130;18.292;2024-03-02T01:21:57;31.10;;;5.18;;
52610;SDS011;38727;40.130;18.292;2024-03-02T01:24:28;20.65;;;4.70;;
52610;SDS011;38727;40.130;18.292;2024-03-02T01:27:01;29.17;;;5.15;;
52610;SDS011;38727;40.130;18.292;2024-03-02T01:29:32;27.17;;;4.38;;
52610;SDS011;38727;40.130;18.292;2024-03-02T01:32:03;24.27;;;4.65;;
52610;SDS011;38727;40.130;18.292;2024-03-02T01:34:34;25.92;;;5.32;;
52610;SDS011;38727;40.130;18.292;2024-03-02T01:37:05;24.30;;;4.90;;
52610;SDS011;38727;40.130;18.292;2024-03-02T01:39:36;23.60;;;3.75;;
52610;SDS011;38727;40.130;18.292;2024-03-02T01:42:09;27.92;;;4.93;;
52610;SDS011;38727;40.130;18.292;2024-03-02T01:44:40;21.33;;;3.75;;
52610;SDS011;38727;40.130;18.292;2024-03-02T01:47:12;19.40;;;5.10;;
52610;SDS011;38727;40.130;18.292;2024-03-02T01:49:43;26.88;;;4.60;;
52610;SDS011;38727;40.130;18.292;2024-03-02T01:52:15;19.90;;;4.03;;
52610;SDS011;38727;40.130;18.292;2024-03-02T01:54:45;25.75;;;4.28;;
52610;SDS011;38727;40.130;18.292;2024-03-02T01:57:18;20.90;;;4.32;;
52610;SDS011;38727;40.130;18.292;2024-03-02T01:59:48;27.65;;;4.90;;
52610;SDS011;38727;40.130;18.292;2024-03-02T02:02:20;25.90;;;4.25;;
52610;SDS011;38727;40.130;18.292;2024-03-02T02:04:51;23.13;;;4.95;;
52610;SDS011;38727;40.130;18.292;2024-03-02T02:07:21;23.45;;;5.15;;
52610;SDS011;38727;40.130;18.292;2024-03-02T02:09:53;25.13;;;3.75;;
52610;SDS011;38727;40.130;18.292;2024-03-02T02:12:25;22.40;;;4.05;;
52610;SDS011;38727;40.130;18.292;2024-03-02T02:14:56;33.75;;;5.47;;
52610;SDS011;38727;40.130;18.292;2024-03-02T02:17:26;31.08;;;4.90;;
52610;SDS011;38727;40.130;18.292;2024-03-02T02:19:58;25.08;;;4.78;;
52610;SDS011;38727;40.130;18.292;2024-03-02T02:22:31;24.08;;;3.97;;
52610;SDS011;38727;40.130;18.292;2024-03-02T02:25:01;24.85;;;5.38;;
52610;SDS011;38727;40.130;18.292;2024-03-02T02:27:32;30.42;;;5.05;;
52610;SDS011;38727;40.130;18.292;2024-03-02T02:30:01;24.17;;;4.38;;
52610;SDS011;38727;40.130;18.292;2024-03-02T02:32:34;29.88;;;4.70;;
52610;SDS011;38727;40.130;18.292;2024-03-02T02:35:06;21.30;;;4.53;;
52610;SDS011;38727;40.130;18.292;2024-03-02T02:37:39;28.00;;;4.97;;
52610;SDS011;38727;40.130;18.292;2024-03-02T02:40:10;22.60;;;4.70;;
52610;SDS011;38727;40.130;18.292;2024-03-02T02:42:42;21.88;;;4.50;;
52610;SDS011;38727;40.130;18.292;2024-03-02T02:45:12;21.05;;;4.00;;
52610;SDS011;38727;40.130;18.292;2024-03-02T02:47:44;31.45;;;4.20;;
52610;SDS011;38727;40.130;18.292;2024-03-02T02:50:15;27.55;;;3.53;;
52610;SDS011;38727;40.130;18.292;2024-03-02T02:52:49;28.42;;;4.65;;
52610;SDS011;38727;40.130;18.292;2024-03-02T02:55:19;28.50;;;4.93;;
52610;SDS011;38727;40.130;18.292;2024-03-02T02:57:50;24.42;;;3.90;;
52610;SDS011;38727;40.130;18.292;2024-03-02T03:00:20;25.42;;;4.68;;
52610;SDS011;38727;40.130;18.292;2024-03-02T03:02:51;29.88;;;4.72;;
52610;SDS011;38727;40.130;18.292;2024-03-02T03:05:22;28.40;;;4.20;;
52610;SDS011;38727;40.130;18.292;2024-03-02T03:07:54;25.17;;;4.10;;
52610;SDS011;38727;40.130;18.292;2024-03-02T03:10:24;20.55;;;3.67;;
52610;SDS011;38727;40.130;18.292;2024-03-02T03:12:56;22.08;;;5.57;;
52610;SDS011;38727;40.130;18.292;2024-03-02T03:15:26;26.27;;;4.22;;
52610;SDS011;38727;40.130;18.292;2024-03-02T03:17:57;30.80;;;4.10;;
52610;SDS011;38727;40.130;18.292;2024-03-02T03:20:28;23.05;;;3.95;;
52610;SDS011;38727;40.130;18.292;2024-03-02T03:23:00;34.08;;;4.53;;
52610;SDS011;38727;40.130;18.292;2024-03-02T03:25:31;19.50;;;3.70;;
52610;SDS011;38727;40.130;18.292;2024-03-02T03:28:01;34.05;;;3.75;;
52610;SDS011;38727;40.130;18.292;2024-03-02T03:30:33;19.70;;;3.42;;
52610;SDS011;38727;40.130;18.292;2024-03-02T03:33:04;41.67;;;5.45;;
52610;SDS011;38727;40.130;18.292;2024-03-02T03:35:35;32.33;;;4.40;;
52610;SDS011;38727;40.130;18.292;2024-03-02T03:38:09;22.80;;;4.88;;
52610;SDS011;38727;40.130;18.292;2024-03-02T03:40:39;26.23;;;5.20;;
52610;SDS011;38727;40.130;18.292;2024-03-02T03:43:09;18.08;;;3.78;;
52610;SDS011;38727;40.130;18.292;2024-03-02T03:45:40;35.75;;;5.30;;
52610;SDS011;38727;40.130;18.292;2024-03-02T03:48:11;23.67;;;3.53;;
52610;SDS011;38727;40.130;18.292;2024-03-02T03:50:41;30.15;;;5.80;;
52610;SDS011;38727;40.130;18.292;2024-03-02T03:53:13;21.85;;;4.32;;
52610;SDS011;38727;40.130;18.292;2024-03-02T03:55:44;27.60;;;3.55;;
52610;SDS011;38727;40.130;18.292;2024-03-02T03:58:15;24.48;;;4.80;;
52610;SDS011;38727;40.130;18.292;2024-03-02T04:00:47;28.60;;;4.40;;
52610;SDS011;38727;40.130;18.292;2024-03-02T04:03:17;23.13;;;4.10;;
52610;SDS011;38727;40.130;18.292;2024-03-02T04:05:48;26.35;;;4.45;;
52610;SDS011;38727;40.130;18.292;2024-03-02T04:08:21;19.63;;;4.05;;
52610;SDS011;38727;40.130;18.292;2024-03-02T04:10:52;32.63;;;4.68;;
52610;SDS011;38727;40.130;18.292;2024-03-02T04:13:23;28.00;;;3.42;;
52610;SDS011;38727;40.130;18.292;2024-03-02T04:15:54;26.52;;;4.40;;
52610;SDS011;38727;40.130;18.292;2024-03-02T04:18:24;21.98;;;4.50;;
52610;SDS011;38727;40.130;18.292;2024-03-02T04:20:58;25.45;;;3.55;;
52610;SDS011;38727;40.130;18.292;2024-03-02T04:23:30;31.38;;;4.72;;
52610;SDS011;38727;40.130;18.292;2024-03-02T04:26:00;32.05;;;4.70;;
52610;SDS011;38727;40.130;18.292;2024-03-02T04:28:31;30.00;;;4.78;;
52610;SDS011;38727;40.130;18.292;2024-03-02T04:31:02;26.27;;;5.40;;
52610;SDS011;38727;40.130;18.292;2024-03-02T04:33:33;30.90;;;5.70;;
52610;SDS011;38727;40.130;18.292;2024-03-02T04:36:05;21.77;;;5.72;;
52610;SDS011;38727;40.130;18.292;2024-03-02T04:38:39;29.00;;;4.50;;
52610;SDS011;38727;40.130;18.292;2024-03-02T04:41:10;23.77;;;4.43;;
52610;SDS011;38727;40.130;18.292;2024-03-02T04:43:40;20.35;;;3.75;;
52610;SDS011;38727;40.130;18.292;2024-03-02T04:46:12;26.15;;;4.82;;
52610;SDS011;38727;40.130;18.292;2024-03-02T04:48:42;20.33;;;3.55;;
52610;SDS011;38727;40.130;18.292;2024-03-02T04:51:12;23.58;;;2.72;;
52610;SDS011;38727;40.130;18.292;2024-03-02T04:53:45;22.80;;;3.38;;
52610;SDS011;38727;40.130;18.292;2024-03-02T04:56:16;20.25;;;4.35;;
52610;SDS011;38727;40.130;18.292;2024-03-02T04:59:08;26.90;;;4.28;;
52610;SDS011;38727;40.130;18.292;2024-03-02T05:01:39;31.65;;;4.53;;
52610;SDS011;38727;40.130;18.292;2024-03-02T05:04:09;18.30;;;2.58;;
52610;SDS011;38727;40.130;18.292;2024-03-02T05:06:41;21.92;;;3.92;;
52610;SDS011;38727;40.130;18.292;2024-03-02T05:09:13;19.38;;;3.10;;
52610;SDS011;38727;40.130;18.292;2024-03-02T05:11:43;21.30;;;2.97;;
52610;SDS011;38727;40.130;18.292;2024-03-02T05:14:45;19.95;;;3.80;;
52610;SDS011;38727;40.130;18.292;2024-03-02T05:17:16;28.45;;;4.40;;
52610;SDS011;38727;40.130;18.292;2024-03-02T05:19:45;22.50;;;3.50;;
52610;SDS011;38727;40.130;18.292;2024-03-02T05:22:15;19.23;;;2.92;;
52610;SDS011;38727;40.130;18.292;2024-03-02T05:24:47;24.42;;;4.22;;
52610;SDS011;38727;40.130;18.292;2024-03-02T05:27:18;18.42;;;4.15;;
52610;SDS011;38727;40.130;18.292;2024-03-02T05:29:49;22.67;;;4.57;;
52610;SDS011;38727;40.130;18.292;2024-03-02T05:32:19;17.50;;;4.75;;
52610;SDS011;38727;40.130;18.292;2024-03-02T05:34:49;18.08;;;4.57;;
52610;SDS011;38727;40.130;18.292;2024-03-02T05:37:20;26.77;;;4.47;;
52610;SDS011;38727;40.130;18.292;2024-03-02T05:39:52;18.65;;;4.28;;
52610;SDS011;38727;40.130;18.292;2024-03-02T05:42:26;17.65;;;4.03;;
52610;SDS011;38727;40.130;18.292;2024-03-02T05:44:58;23.00;;;3.90;;
52610;SDS011;38727;40.130;18.292;2024-03-02T05:47:28;18.73;;;4.65;;
52610;SDS011;38727;40.130;18.292;2024-03-02T05:50:00;22.40;;;4.85;;
52610;SDS011;38727;40.130;18.292;2024-03-02T05:52:32;25.58;;;4.47;;
52610;SDS011;38727;40.130;18.292;2024-03-02T05:55:04;14.45;;;3.25;;
52610;SDS011;38727;40.130;18.292;2024-03-02T05:57:35;29.00;;;4.57;;
52610;SDS011;38727;40.130;18.292;2024-03-02T06:00:23;23.67;;;4.65;;
52610;SDS011;38727;40.130;18.292;2024-03-02T06:02:54;20.38;;;4.97;;
52610;SDS011;38727;40.130;18.292;2024-03-02T06:05:24;19.85;;;4.10;;
52610;SDS011;38727;40.130;18.292;2024-03-02T06:07:54;19.40;;;3.80;;
52610;SDS011;38727;40.130;18.292;2024-03-02T06:10:26;11.68;;;3.25;;
52610;SDS011;38727;40.130;18.292;2024-03-02T06:12:57;15.48;;;3.92;;
52610;SDS011;38727;40.130;18.292;2024-03-02T06:15:27;20.15;;;4.18;;
52610;SDS011;38727;40.130;18.292;2024-03-02T06:17:57;24.23;;;4.22;;
52610;SDS011;38727;40.130;18.292;2024-03-02T06:20:28;23.52;;;4.03;;
52610;SDS011;38727;40.130;18.292;2024-03-02T06:22:59;27.60;;;4.18;;
52610;SDS011;38727;40.130;18.292;2024-03-02T06:25:30;15.20;;;4.50;;
52610;SDS011;38727;40.130;18.292;2024-03-02T06:28:00;20.67;;;3.10;;
52610;SDS011;38727;40.130;18.292;2024-03-02T06:30:30;23.30;;;5.82;;
52610;SDS011;38727;40.130;18.292;2024-03-02T06:33:01;16.77;;;4.43;;
52610;SDS011;38727;40.130;18.292;2024-03-02T06:35:33;19.08;;;3.95;;
52610;SDS011;38727;40.130;18.292;2024-03-02T06:38:04;22.70;;;3.92;;
52610;SDS011;38727;40.130;18.292;2024-03-02T06:40:38;25.38;;;3.38;;
52610;SDS011;38727;40.130;18.292;2024-03-02T06:43:09;19.58;;;3.20;;
52610;SDS011;38727;40.130;18.292;2024-03-02T06:45:39;17.23;;;3.30;;
52610;SDS011;38727;40.130;18.292;2024-03-02T06:48:09;20.75;;;3.92;;
52610;SDS011;38727;40.130;18.292;2024-03-02T06:50:41;16.60;;;3.30;;
52610;SDS011;38727;40.130;18.292;2024-03-02T06:53:11;20.05;;;3.85;;
52610;SDS011;38727;40.130;18.292;2024-03-02T06:55:43;18.48;;;4.15;;
52610;SDS011;38727;40.130;18.292;2024-03-02T06:58:15;17.20;;;3.35;;
52610;SDS011;38727;40.130;18.292;2024-03-02T07:00:46;25.75;;;4.15;;
52610;SDS011;38727;40.130;18.292;2024-03-02T07:03:17;23.60;;;4.28;;
52610;SDS011;38727;40.130;18.292;2024-03-02T07:05:47;16.58;;;3.85;;
52610;SDS011;38727;40.130;18.292;2024-03-02T07:08:19;22.17;;;4.13;;
52610;SDS011;38727;40.130;18.292;2024-03-02T07:10:52;22.75;;;3.85;;
52610;SDS011;38727;40.130;18.292;2024-03-02T07:13:23;23.23;;;2.85;;
52610;SDS011;38727;40.130;18.292;2024-03-02T07:15:57;14.88;;;2.15;;
52610;SDS011;38727;40.130;18.292;2024-03-02T07:19:12;21.73;;;4.13;;
52610;SDS011;38727;40.130;18.292;2024-03-02T07:21:43;13.88;;;3.10;;
52610;SDS011;38727;40.130;18.292;2024-03-02T07:24:14;20.35;;;3.05;;
52610;SDS011;38727;40.130;18.292;2024-03-02T07:26:45;18.55;;;4.40;;
52610;SDS011;38727;40.130;18.292;2024-03-02T07:29:15;27.73;;;5.00;;
52610;SDS011;38727;40.130;18.292;2024-03-02T07:31:46;19.50;;;3.08;;
52610;SDS011;38727;40.130;18.292;2024-03-02T07:34:18;15.65;;;3.03;;
52610;SDS011;38727;40.130;18.292;2024-03-02T07:36:49;28.75;;;4.95;;
52610;SDS011;38727;40.130;18.292;2024-03-02T07:39:20;13.85;;;3.20;;
52610;SDS011;38727;40.130;18.292;2024-03-02T07:41:52;16.15;;;3.17;;
52610;SDS011;38727;40.130;18.292;2024-03-02T07:44:22;26.65;;;5.13;;
52610;SDS011;38727;40.130;18.292;2024-03-02T07:46:53;16.50;;;2.92;;
52610;SDS011;38727;40.130;18.292;2024-03-02T07:49:25;20.65;;;2.65;;
52610;SDS011;38727;40.130;18.292;2024-03-02T07:51:57;20.95;;;3.28;;
52610;SDS011;38727;40.130;18.292;2024-03-02T07:54:29;19.20;;;3.13;;
52610;SDS011;38727;40.130;18.292;2024-03-02T07:57:01;21.40;;;2.92;;
52610;SDS011;38727;40.130;18.292;2024-03-02T07:59:31;20.33;;;2.42;;
52610;SDS011;38727;40.130;18.292;2024-03-02T08:02:03;22.70;;;2.95;;
52610;SDS011;38727;40.130;18.292;2024-03-02T08:04:35;19.00;;;3.00;;
52610;SDS011;38727;40.130;18.292;2024-03-02T08:07:08;26.17;;;4.72;;
52610;SDS011;38727;40.130;18.292;2024-03-02T08:09:39;20.90;;;3.78;;
52610;SDS011;38727;40.130;18.292;2024-03-02T08:12:10;14.48;;;3.47;;
52610;SDS011;38727;40.130;18.292;2024-03-02T08:14:44;27.05;;;4.38;;
52610;SDS011;38727;40.130;18.292;2024-03-02T08:17:14;33.05;;;5.20;;
52610;SDS011;38727;40.130;18.292;2024-03-02T08:19:47;23.20;;;5.00;;
52610;SDS011;38727;40.130;18.292;2024-03-02T08:22:21;25.65;;;5.32;;
52610;SDS011;38727;40.130;18.292;2024-03-02T08:24:53;23.33;;;3.75;;
52610;SDS011;38727;40.130;18.292;2024-03-02T08:27:25;21.15;;;3.63;;
52610;SDS011;38727;40.130;18.292;2024-03-02T08:29:56;28.38;;;5.28;;
52610;SDS011;38727;40.130;18.292;2024-03-02T08:32:27;21.08;;;3.30;;
52610;SDS011;38727;40.130;18.292;2024-03-02T08:34:59;21.10;;;3.42;;
52610;SDS011;38727;40.130;18.292;2024-03-02T08:37:31;25.10;;;5.07;;
52610;SDS011;38727;40.130;18.292;2024-03-02T08:40:02;25.08;;;5.47;;
52610;SDS011;38727;40.130;18.292;2024-03-02T08:42:34;18.00;;;4.32;;
52610;SDS011;38727;40.130;18.292;2024-03-02T08:45:06;27.08;;;4.85;;
52610;SDS011;38727;40.130;18.292;2024-03-02T08:47:38;33.10;;;7.65;;
52610;SDS011;38727;40.130;18.292;2024-03-02T08:50:10;20.90;;;6.05;;
52610;SDS011;38727;40.130;18.292;2024-03-02T08:52:41;27.15;;;4.35;;
52610;SDS011;38727;40.130;18.292;2024-03-02T08:55:12;21.05;;;4.25;;
52610;SDS011;38727;40.130;18.292;2024-03-02T08:57:43;15.18;;;2.75;;
52610;SDS011;38727;40.130;18.292;2024-03-02T09:00:14;21.17;;;4.38;;
52610;SDS011;38727;40.130;18.292;2024-03-02T09:02:47;14.00;;;3.15;;
52610;SDS011;38727;40.130;18.292;2024-03-02T09:05:19;22.50;;;4.05;;
52610;SDS011;38727;40.130;18.292;2024-03-02T09:07:50;14.60;;;2.88;;
52610;SDS011;38727;40.130;18.292;2024-03-02T09:10:21;24.60;;;3.03;;
52610;SDS011;38727;40.130;18.292;2024-03-02T09:12:52;17.13;;;2.80;;
52610;SDS011;38727;40.130;18.292;2024-03-02T09:15:23;16.23;;;3.20;;
52610;SDS011;38727;40.130;18.292;2024-03-02T09:17:54;13.95;;;2.55;;
52610;SDS011;38727;40.130;18.292;2024-03-02T09:20:26;16.85;;;2.85;;
52610;SDS011;38727;40.130;18.292;2024-03-02T09:22:56;16.48;;;2.70;;
52610;SDS011;38727;40.130;18.292;2024-03-02T09:25:27;23.45;;;2.67;;
52610;SDS011;38727;40.130;18.292;2024-03-02T09:27:57;16.77;;;2.55;;
52610;SDS011;38727;40.130;18.292;2024-03-02T09:30:29;18.80;;;2.90;;
52610;SDS011;38727;40.130;18.292;2024-03-02T09:33:00;21.75;;;3.45;;
52610;SDS011;38727;40.130;18.292;2024-03-02T09:35:33;21.40;;;3.95;;
52610;SDS011;38727;40.130;18.292;2024-03-02T09:38:04;17.85;;;3.50;;
52610;SDS011;38727;40.130;18.292;2024-03-02T09:40:35;20.55;;;3.05;;
52610;SDS011;38727;40.130;18.292;2024-03-02T09:43:07;27.35;;;2.80;;
52610;SDS011;38727;40.130;18.292;2024-03-02T09:45:38;24.58;;;3.83;;
52610;SDS011;38727;40.130;18.292;2024-03-02T09:48:10;20.42;;;2.78;;
52610;SDS011;38727;40.130;18.292;2024-03-02T09:50:42;17.15;;;3.88;;
52610;SDS011;38727;40.130;18.292;2024-03-02T09:53:13;25.80;;;4.38;;
52610;SDS011;38727;40.130;18.292;2024-03-02T09:55:45;18.30;;;4.13;;
52610;SDS011;38727;40.130;18.292;2024-03-02T09:58:16;17.02;;;3.03;;
52610;SDS011;38727;40.130;18.292;2024-03-02T10:00:47;13.68;;;2.83;;
52610;SDS011;38727;40.130;18.292;2024-03-02T10:03:18;21.17;;;3.10;;
52610;SDS011;38727;40.130;18.292;2024-03-02T10:05:50;16.77;;;3.97;;
52610;SDS011;38727;40.130;18.292;2024-03-02T10:08:21;21.92;;;3.15;;
52610;SDS011;38727;40.130;18.292;2024-03-02T10:10:51;18.05;;;3.40;;
52610;SDS011;38727;40.130;18.292;2024-03-02T10:13:22;19.75;;;2.47;;
52610;SDS011;38727;40.130;18.292;2024-03-02T10:15:55;24.67;;;3.38;;
52610;SDS011;38727;40.130;18.292;2024-03-02T10:18:27;18.75;;;2.85;;
52610;SDS011;38727;40.130;18.292;2024-03-02T10:21:01;21.58;;;3.55;;
52610;SDS011;38727;40.130;18.292;2024-03-02T10:23:42;20.30;;;3.13;;
52610;SDS011;38727;40.130;18.292;2024-03-02T10:26:16;19.50;;;3.65;;
52610;SDS011;38727;40.130;18.292;2024-03-02T10:28:47;17.45;;;3.10;;
52610;SDS011;38727;40.130;18.292;2024-03-02T10:31:18;17.50;;;3.58;;
52610;SDS011;38727;40.130;18.292;2024-03-02T10:33:55;25.58;;;4.35;;
52610;SDS011;38727;40.130;18.292;2024-03-02T10:36:29;15.55;;;2.72;;
52610;SDS011;38727;40.130;18.292;2024-03-02T10:39:02;16.83;;;2.65;;
52610;SDS011;38727;40.130;18.292;2024-03-02T10:41:33;17.70;;;2.88;;
52610;SDS011;38727;40.130;18.292;2024-03-02T10:44:04;16.02;;;2.40;;
52610;SDS011;38727;40.130;18.292;2024-03-02T10:46:38;18.55;;;2.95;;
52610;SDS011;38727;40.130;18.292;2024-03-02T10:49:13;15.93;;;2.70;;
52610;SDS011;38727;40.130;18.292;2024-03-02T10:51:45;20.42;;;4.43;;
52610;SDS011;38727;40.130;18.292;2024-03-02T10:54:17;20.23;;;3.53;;
52610;SDS011;38727;40.130;18.292;2024-03-02T10:56:54;21.40;;;2.67;;
52610;SDS011;38727;40.130;18.292;2024-03-02T10:59:32;15.25;;;2.85;;
52610;SDS011;38727;40.130;18.292;2024-03-02T11:02:04;20.63;;;2.90;;
52610;SDS011;38727;40.130;18.292;2024-03-02T11:04:36;24.63;;;4.20;;
52610;SDS011;38727;40.130;18.292;2024-03-02T11:07:10;13.13;;;2.72;;
52610;SDS011;38727;40.130;18.292;2024-03-02T11:09:45;15.02;;;2.88;;
52610;SDS011;38727;40.130;18.292;2024-03-02T11:12:23;15.85;;;3.33;;
52610;SDS011;38727;40.130;18.292;2024-03-02T11:14:58;14.77;;;3.05;;
52610;SDS011;38727;40.130;18.292;2024-03-02T11:17:29;23.92;;;3.67;;
52610;SDS011;38727;40.130;18.292;2024-03-02T11:20:05;15.23;;;2.85;;
52610;SDS011;38727;40.130;18.292;2024-03-02T11:22:39;21.85;;;3.78;;
52610;SDS011;38727;40.130;18.292;2024-03-02T11:25:22;20.45;;;3.67;;
52610;SDS011;38727;40.130;18.292;2024-03-02T11:30:50;17.13;;;3.75;;
52610;SDS011;38727;40.130;18.292;2024-03-02T11:33:25;17.40;;;3.85;;
52610;SDS011;38727;40.130;18.292;2024-03-02T11:35:57;21.75;;;3.83;;
52610;SDS011;38727;40.130;18.292;2024-03-02T11:38:33;18.50;;;3.88;;
52610;SDS011;38727;40.130;18.292;2024-03-02T11:41:06;21.73;;;3.45;;
52610;SDS011;38727;40.130;18.292;2024-03-02T11:43:38;18.58;;;3.60;;
52610;SDS011;38727;40.130;18.292;2024-03-02T11:46:10;22.25;;;4.35;;
52610;SDS011;38727;40.130;18.292;2024-03-02T11:48:41;16.95;;;3.78;;
52610;SDS011;38727;40.130;18.292;2024-03-02T11:51:11;30.40;;;4.80;;
52610;SDS011;38727;40.130;18.292;2024-03-02T11:53:43;22.08;;;4.03;;
52610;SDS011;38727;40.130;18.292;2024-03-02T11:56:16;23.17;;;4.07;;
52610;SDS011;38727;40.130;18.292;2024-03-02T11:58:49;22.23;;;3.17;;
52610;SDS011;38727;40.130;18.292;2024-03-02T12:01:24;13.07;;;3.13;;
52610;SDS011;38727;40.130;18.292;2024-03-02T12:03:57;18.67;;;3.28;;
52610;SDS011;38727;40.130;18.292;2024-03-02T12:06:29;19.27;;;3.80;;
52610;SDS011;38727;40.130;18.292;2024-03-02T12:09:01;22.23;;;3.50;;
52610;SDS011;38727;40.130;18.292;2024-03-02T12:11:32;19.50;;;4.43;;
52610;SDS011;38727;40.130;18.292;2024-03-02T12:14:03;18.42;;;3.10;;
52610;SDS011;38727;40.130;18.292;2024-03-02T12:16:34;19.98;;;3.88;;
52610;SDS011;38727;40.130;18.292;2024-03-02T12:19:06;18.02;;;3.22;;
52610;SDS011;38727;40.130;18.292;2024-03-02T12:21:40;24.27;;;3.95;;
52610;SDS011;38727;40.130;18.292;2024-03-02T12:24:13;27.20;;;3.53;;
52610;SDS011;38727;40.130;18.292;2024-03-02T12:26:43;17.40;;;3.38;;
52610;SDS011;38727;40.130;18.292;2024-03-02T12:29:15;20.63;;;3.60;;
52610;SDS011;38727;40.130;18.292;2024-03-02T12:31:45;21.02;;;3.70;;
52610;SDS011;38727;40.130;18.292;2024-03-02T12:34:18;14.17;;;3.23;;
52610;SDS011;38727;40.130;18.292;2024-03-02T12:36:49;18.65;;;3.83;;
52610;SDS011;38727;40.130;18.292;2024-03-02T12:39:22;18.27;;;3.60;;
52610;SDS011;38727;40.130;18.292;2024-03-02T12:41:53;18.02;;;3.45;;
52610;SDS011;38727;40.130;18.292;2024-03-02T12:44:24;20.23;;;3.40;;
52610;SDS011;38727;40.130;18.292;2024-03-02T12:46:54;17.98;;;3.65;;
52610;SDS011;38727;40.130;18.292;2024-03-02T12:49:25;23.92;;;3.60;;
52610;SDS011;38727;40.130;18.292;2024-03-02T12:51:57;21.58;;;3.05;;
52610;SDS011;38727;40.130;18.292;2024-03-02T12:54:28;15.52;;;3.83;;
52610;SDS011;38727;40.130;18.292;2024-03-02T12:56:59;24.52;;;3.85;;
52610;SDS011;38727;40.130;18.292;2024-03-02T12:59:30;13.68;;;2.55;;
52610;SDS011;38727;40.130;18.292;2024-03-02T13:02:01;19.92;;;3.42;;
52610;SDS011;38727;40.130;18.292;2024-03-02T13:04:32;21.90;;;3.28;;
52610;SDS011;38727;40.130;18.292;2024-03-02T13:07:02;18.55;;;3.85;;
52610;SDS011;38727;40.130;18.292;2024-03-02T13:09:34;25.17;;;2.97;;
52610;SDS011;38727;40.130;18.292;2024-03-02T13:12:05;19.25;;;3.67;;
52610;SDS011;38727;40.130;18.292;2024-03-02T13:14:36;23.67;;;3.70;;
52610;SDS011;38727;40.130;18.292;2024-03-02T13:17:07;24.83;;;2.90;;
52610;SDS011;38727;40.130;18.292;2024-03-02T13:19:38;18.95;;;2.75;;
52610;SDS011;38727;40.130;18.292;2024-03-02T13:22:20;19.88;;;3.53;;
52610;SDS011;38727;40.130;18.292;2024-03-02T13:24:53;18.90;;;2.67;;
52610;SDS011;38727;40.130;18.292;2024-03-02T13:27:24;16.15;;;3.10;;
52610;SDS011;38727;40.130;18.292;2024-03-02T13:29:55;15.25;;;3.70;;
52610;SDS011;38727;40.130;18.292;2024-03-02T13:32:26;23.27;;;4.05;;
52610;SDS011;38727;40.130;18.292;2024-03-02T13:34:57;15.38;;;2.70;;
52610;SDS011;38727;40.130;18.292;2024-03-02T13:37:27;21.88;;;4.07;;
52610;SDS011;38727;40.130;18.292;2024-03-02T13:39:58;19.15;;;4.25;;
52610;SDS011;38727;40.130;18.292;2024-03-02T13:42:29;26.67;;;3.85;;
52610;SDS011;38727;40.130;18.292;2024-03-02T13:45:00;28.30;;;4.00;;
52610;SDS011;38727;40.130;18.292;2024-03-02T13:50:03;20.90;;;2.90;;
52610;SDS011;38727;40.130;18.292;2024-03-02T13:52:36;22.75;;;3.47;;
52610;SDS011;38727;40.130;18.292;2024-03-02T13:55:09;23.90;;;4.47;;
52610;SDS011;38727;40.130;18.292;2024-03-02T13:57:40;25.30;;;3.28;;
52610;SDS011;38727;40.130;18.292;2024-03-02T14:00:10;15.48;;;2.92;;
52610;SDS011;38727;40.130;18.292;2024-03-02T14:02:42;21.35;;;3.53;;
52610;SDS011;38727;40.130;18.292;2024-03-02T14:05:13;20.85;;;3.97;;
52610;SDS011;38727;40.130;18.292;2024-03-02T14:07:44;16.15;;;3.20;;
52610;SDS011;38727;40.130;18.292;2024-03-02T14:10:28;17.85;;;3.92;;
52610;SDS011;38727;40.130;18.292;2024-03-02T14:12:59;14.63;;;3.38;;
52610;SDS011;38727;40.130;18.292;2024-03-02T14:15:29;14.40;;;2.05;;
52610;SDS011;38727;40.130;18.292;2024-03-02T14:18:01;13.27;;;2.80;;
52610;SDS011;38727;40.130;18.292;2024-03-02T14:20:32;14.35;;;3.05;;
52610;SDS011;38727;40.130;18.292;2024-03-02T14:23:04;16.70;;;2.10;;
52610;SDS011;38727;40.130;18.292;2024-03-02T14:25:36;12.60;;;2.33;;
52610;SDS011;38727;40.130;18.292;2024-03-02T14:28:06;13.25;;;2.72;;
52610;SDS011;38727;40.130;18.292;2024-03-02T14:30:39;13.57;;;2.25;;
52610;SDS011;38727;40.130;18.292;2024-03-02T14:33:11;9.57;;;2.00;;
52610;SDS011;38727;40.130;18.292;2024-03-02T14:35:43;13.68;;;2.83;;
52610;SDS011;38727;40.130;18.292;2024-03-02T14:38:15;16.13;;;3.30;;
52610;SDS011;38727;40.130;18.292;2024-03-02T14:40:48;15.02;;;2.90;;
52610;SDS011;38727;40.130;18.292;2024-03-02T14:43:18;12.38;;;2.85;;
52610;SDS011;38727;40.130;18.292;2024-03-02T14:45:49;12.23;;;2.03;;
52610;SDS011;38727;40.130;18.292;2024-03-02T14:48:22;14.82;;;1.85;;
52610;SDS011;38727;40.130;18.292;2024-03-02T14:50:53;8.30;;;2.08;;
52610;SDS011;38727;40.130;18.292;2024-03-02T14:53:24;9.80;;;2.80;;